Have a Safe July 4th! 

Flight Track Log - Related Links

Times and Time Zones

All times are in EDT time to prevent confusion due to time zone crossing. See the N411CC flight status page for this flight to view local times or setup timezone preferences in your user account.

Time Position Orientation Groundspeed Altitude Reporting Facility
EDT Latitude Longitude Course Direction KTS MPH feet Rate Location/Type
Wed 07:30:52 PM 42.5006 -122.9875 North 164 189 8,200  Level Seattle Center
Wed 07:31:53 PM 42.5378 -123.0119 334° Northwest 164 189 9,700 1,377 Climbing Seattle Center
Wed 07:32:54 PM 42.5856 -123.0056 North 171 197 11,000 1,328 Climbing Seattle Center
Wed 07:33:00 PM 42.7514 -122.8605 North  Level Estimated
Wed 07:33:55 PM 42.6381 -123.0008 North 186 214 12,400  Level Seattle Center
Wed 07:34:00 PM 42.8143 -122.8599 North  Level FlightAware Approximate
Wed 07:34:56 PM 42.6911 -122.9964 North 190 219 14,000  Level Seattle Center
Wed 07:35:00 PM 42.8772 -122.8594 North  Level FlightAware Approximate
Wed 07:35:57 PM 42.7400 -122.9931 North 175 201 15,700  Level Seattle Center
Wed 07:36:00 PM 42.9401 -122.8589 North  Level FlightAware Approximate
Wed 07:36:58 PM 42.7944 -122.9900 North 201 231 16,000  Level Seattle Center
Wed 07:37:59 PM 42.8614 -122.9839 North 240 276 16,000  Level Seattle Center
Wed 07:39:00 PM 42.9439 -122.9772 North 248 285 16,000  Level Seattle Center
Wed 07:40:01 PM 43.0128 -122.9700 North 248 285 16,000  Level Seattle Center
Wed 07:41:02 PM 43.0822 -122.9633 North 249 287 16,000 344 Level Seattle Center
Wed 07:42:03 PM 43.1500 -122.9564 North 244 281 16,700 492 Climbing Seattle Center
Wed 07:43:04 PM 43.2131 -122.9506 North 229 264 17,000 197 Climbing Seattle Center
Wed 07:44:05 PM 43.2808 -122.9414 North 243 280 17,100  Climbing Seattle Center
Wed 07:45:06 PM 43.3497 -122.9431 359° North 247 284 17,000 -49 Descending Seattle Center
Wed 07:46:07 PM 43.4214 -122.9356 North 253 291 17,000  Level Seattle Center
Wed 07:47:08 PM 43.4911 -122.9322 North 253 291 17,000  Level Seattle Center
Wed 07:48:09 PM 43.5603 -122.9431 354° North 249 287 17,000  Level Seattle Center
Wed 07:49:10 PM 43.6306 -122.9458 358° North 252 290 17,000  Level Seattle Center
Wed 07:50:11 PM 43.6994 -122.9567 354° North 248 285 17,000  Level Seattle Center
Wed 07:51:12 PM 43.7850 -122.9650 356° North 256 295 17,000  Level Seattle Center
Wed 07:52:13 PM 43.8539 -122.9767 353° North 250 288 17,000  Level Seattle Center
Wed 07:53:14 PM 43.9242 -122.9878 354° North 254 292 17,000  Level Seattle Center
Wed 07:54:15 PM 43.9961 -122.9833 North 262 302 17,000  Level Seattle Center
Wed 07:55:16 PM 44.0694 -122.9692 North 266 306 17,000  Level Seattle Center
Wed 07:56:17 PM 44.1417 -122.9575 North 263 303 17,000 -295 Level Seattle Center
Wed 07:57:18 PM 44.2158 -122.9453 North 270 311 16,400 -541 Descending Seattle Center
Wed 07:58:19 PM 44.2897 -122.9331 North 269 310 15,900 -689 Descending Seattle Center
Wed 07:59:20 PM 44.3692 -122.9203 North 271 312 15,000 -836 Descending Seattle Center
Wed 08:00:21 PM 44.4428 -122.9072 North 269 310 14,200 -934 Descending Seattle Center
Wed 08:01:22 PM 44.5186 -122.8953 North 275 316 13,100 -1,033 Descending Seattle Center
Wed 08:02:23 PM 44.5900 -122.8825 North 262 302 12,100 -1,082 Descending Seattle Center
Wed 08:03:24 PM 44.6600 -122.8711 North 257 296 10,900 -1,180 Descending Seattle Center
Wed 08:04:25 PM 44.7297 -122.8583 North 254 292 9,700 -1,328 Descending Seattle Center
Wed 08:05:26 PM 44.7986 -122.8483 North 251 289 8,200 -1,525 Descending Seattle Center
Wed 08:06:27 PM 44.8797 -122.8331 North 245 282 6,600 -1,467 Descending Seattle Center
Wed 08:06:56 PM 44.9081 -122.8261 10° North 227 261 6,000 -1,220 Descending Seattle Center
Wed 08:07:26 PM 44.9378 -122.8233 North 217 250 5,400 -1,125 Descending Seattle Center
Wed 08:07:28 PM 44.9392 -122.8239 344° North 218 251 5,400 -885 Level Seattle Center
Wed 08:08:27 PM 44.9900 -122.8147 North 199 229 4,500 -885 Descending Seattle Center
Wed 08:08:29 PM 44.9903 -122.8139 65° Northeast 186 214 4,500 -492 Level Seattle Center
Wed 08:09:28 PM 45.0406 -122.8067 North 186 214 4,000 -492 Descending Seattle Center
Wed 08:09:30 PM 45.0400 -122.8078 235° Southwest 182 209 4,000 -1,377 Level Seattle Center
Wed 08:10:29 PM 45.0847 -122.8011 North 161 185 2,600 -1,377 Descending Seattle Center
Wed 08:10:31 PM 45.0853 -122.8000 55° Northeast 167 192 2,600 -484 Level Seattle Center
Wed 08:11:31 PM 45.1283 -122.7917 North 160 184 2,100 -347 Descending Seattle Center
Wed 08:12:32 PM 45.1711 -122.7806 10° North 159 183 1,900 -146 Descending Seattle Center
Wed 08:13:34 PM 45.2131 -122.7644 15° North 158 182 1,800 -197 Descending Seattle Center
Wed 08:14:34 PM 45.2508 -122.7389 25° Northeast 156 180 1,500 -496 Descending Seattle Center
Wed 08:15:35 PM 45.2728 -122.7622 323° Northwest 143 165 800 -639 Descending Seattle Center
Wed 08:16:36 PM 45.2439 -122.7711 192° South 118 136 200 -590 Descending Seattle Center

Login

Don't have an account? Register now (free) for customized features, flight alerts, and more!